No particular awareness of the weather is required.    There are no Weather-warnings


Meteo18 Weather Cam more information Meteo18 Weather Cam


Thunder radar more information blitzortung!


Rain radar more information rain snow radar


Visit our other weather sites:

Template documentation
and downloads

And another site



Weather Underground History page Text

Daily Summary for November 22, 2017 Units:  Both    English   Metric
« Previous Day
Next Day »
Daily Weekly Monthly Yearly Custom
  High: Low: Average:
Temperature: TemperatureC °F /  -17.8 °C 1.6 °F /  -16.9 °C 8.4 °F /  -13.1 °C
Dew Point: DewpointC °F /  -17.8 °C 1.4 °F /  -17 °C 5.4 °F /  -14.8 °C
Humidity: Humidity % 62 % 82 %
Wind Speed: WindSpeedKMH mph /  0 km/h - 1.7 mph /  2.7 km/h
Wind Gust: WindSpeedGustKMH mph /  0 km/h - -
Wind:- - SSW
Pressure: PressurehPa in /  0 hPa 1008.0 in /  34130.9 hPa -
Precipitation: 0.0 in /  0 mm    
Historical Graphs
 
 
Tabular Data for November 22, 2017
Time Temperature Dew Point Pressure Wind Wind Speed Wind Gust Humidity Rainfall Rate (Hourly)
TemperatureC °F /  -17.8 °C DewpointC °F /  -17.8 °C PressurehPa in /  0 hPa Calm     Humidity % HourlyPrecipMM in /  0 mm
00:02 4.0 °F /  -15.6 °C 3.6 °F /  -15.8 °C 1017.2 in /  34442.4 hPa Calm   1.6 mph /  2.6 km/h 97 % 0.0 in /  0 mm
00:12 3.8 °F /  -15.7 °C 3.4 °F /  -15.9 °C 1017.2 in /  34442.4 hPa Calm   1.6 mph /  2.6 km/h 97 % 0.0 in /  0 mm
00:22 3.6 °F /  -15.8 °C 3.2 °F /  -16 °C 1017.2 in /  34442.4 hPa SSW 1.6 mph /  2.6 km/h 1.6 mph /  2.6 km/h 97 % 0.0 in /  0 mm
00:32 3.4 °F /  -15.9 °C 3.0 °F /  -16.1 °C 1017.2 in /  34442.4 hPa Calm   3.2 mph /  5.1 km/h 97 % 0.0 in /  0 mm
00:57 3.6 °F /  -15.8 °C 3.2 °F /  -16 °C 1017.2 in /  34442.4 hPa Calm   1.6 mph /  2.6 km/h 97 % 0.0 in /  0 mm
01:02 3.5 °F /  -15.8 °C 3.1 °F /  -16.1 °C 1017.2 in /  34442.4 hPa Calm   1.6 mph /  2.6 km/h 97 % 0.0 in /  0 mm
01:12 3.4 °F /  -15.9 °C 3.0 °F /  -16.1 °C 1016.8 in /  34428.8 hPa Calm   1.6 mph /  2.6 km/h 97 % 0.0 in /  0 mm
01:32 4.0 °F /  -15.6 °C 3.6 °F /  -15.8 °C 1016.8 in /  34428.8 hPa Calm   3.2 mph /  5.1 km/h 97 % 0.0 in /  0 mm
01:42 4.0 °F /  -15.6 °C 3.6 °F /  -15.8 °C 1016.8 in /  34428.8 hPa Calm   3.2 mph /  5.1 km/h 97 % 0.0 in /  0 mm
01:47 3.7 °F /  -15.7 °C 3.3 °F /  -15.9 °C 1016.8 in /  34428.8 hPa Calm   3.2 mph /  5.1 km/h 97 % 0.0 in /  0 mm
02:12 2.6 °F /  -16.3 °C 2.2 °F /  -16.6 °C 1016.5 in /  34418.7 hPa Calm   1.6 mph /  2.6 km/h 97 % 0.0 in /  0 mm
02:17 2.4 °F /  -16.4 °C 2.0 °F /  -16.7 °C 1016.5 in /  34418.7 hPa Calm     97 % 0.0 in /  0 mm
02:32 2.2 °F /  -16.6 °C 1.8 °F /  -16.8 °C 1016.5 in /  34418.7 hPa Calm     97 % 0.0 in /  0 mm
02:42 2.2 °F /  -16.6 °C 1.8 °F /  -16.8 °C 1016.5 in /  34418.7 hPa Calm     97 % 0.0 in /  0 mm
02:47 2.2 °F /  -16.6 °C 1.8 °F /  -16.8 °C 1016.5 in /  34418.7 hPa Calm     97 % 0.0 in /  0 mm
02:52 2.2 °F /  -16.6 °C 1.8 °F /  -16.8 °C 1016.5 in /  34418.7 hPa Calm     97 % 0.0 in /  0 mm
02:57 2.1 °F /  -16.6 °C 1.7 °F /  -16.8 °C 1016.5 in /  34418.7 hPa Calm     97 % 0.0 in /  0 mm
03:12 1.9 °F /  -16.7 °C 1.5 °F /  -16.9 °C 1016.5 in /  34418.7 hPa Calm     97 % 0.0 in /  0 mm
03:22 1.6 °F /  -16.9 °C 1.6 °F /  -16.9 °C 1016.1 in /  34405.1 hPa Calm     100 % 0.0 in /  0 mm
03:27 1.6 °F /  -16.9 °C 1.6 °F /  -16.9 °C 1016.1 in /  34405.1 hPa Calm     100 % 0.0 in /  0 mm
08:47 1.7 °F /  -16.8 °C 1.4 °F /  -17 °C 1014.4 in /  34347.6 hPa WNW 1.6 mph /  2.6 km/h -1607.4 mph /  -2586.8 km/h 98 % 0.0 in /  0 mm
09:02 1.9 °F /  -16.7 °C 1.6 °F /  -16.9 °C 1014.4 in /  34347.6 hPa Calm   3.2 mph /  5.1 km/h 98 % 0.0 in /  0 mm
09:12 1.9 °F /  -16.7 °C 1.5 °F /  -16.9 °C 1014.4 in /  34347.6 hPa Calm   1.6 mph /  2.6 km/h 97 % 0.0 in /  0 mm
09:17 2.1 °F /  -16.6 °C 1.7 °F /  -16.8 °C 1014.4 in /  34347.6 hPa Calm   1.6 mph /  2.6 km/h 97 % 0.0 in /  0 mm
09:27 2.6 °F /  -16.3 °C 2.2 °F /  -16.6 °C 1014.4 in /  34347.6 hPa Calm     97 % 0.0 in /  0 mm
09:37 3.0 °F /  -16.1 °C 2.7 °F /  -16.3 °C 1014.1 in /  34337.4 hPa Calm   1.6 mph /  2.6 km/h 98 % 0.0 in /  0 mm
09:47 3.2 °F /  -16 °C 2.8 °F /  -16.2 °C 1014.1 in /  34337.4 hPa Calm   3.2 mph /  5.1 km/h 97 % 0.0 in /  0 mm
10:02 3.7 °F /  -15.7 °C 3.3 °F /  -15.9 °C 1014.1 in /  34337.4 hPa SW 1.6 mph /  2.6 km/h 4.8 mph /  7.7 km/h 97 % 0.0 in /  0 mm
10:17 4.4 °F /  -15.3 °C 4.0 °F /  -15.6 °C 1013.8 in /  34327.3 hPa Calm   3.2 mph /  5.1 km/h 97 % 0.0 in /  0 mm
10:22 5.3 °F /  -14.8 °C 5.0 °F /  -15 °C 1013.8 in /  34327.3 hPa Calm   1.6 mph /  2.6 km/h 98 % 0.0 in /  0 mm
10:32 5.7 °F /  -14.6 °C 5.4 °F /  -14.8 °C 1013.8 in /  34327.3 hPa Calm     98 % 0.0 in /  0 mm
10:37 5.3 °F /  -14.8 °C 4.9 °F /  -15.1 °C 1013.8 in /  34327.3 hPa Calm     97 % 0.0 in /  0 mm
10:47 5.4 °F /  -14.8 °C 5.0 °F /  -15 °C 1013.8 in /  34327.3 hPa Calm     97 % 0.0 in /  0 mm
10:57 5.8 °F /  -14.6 °C 5.4 °F /  -14.8 °C 1013.8 in /  34327.3 hPa Calm     97 % 0.0 in /  0 mm
11:02 6.1 °F /  -14.4 °C 5.7 °F /  -14.6 °C 1013.8 in /  34327.3 hPa SW 1.6 mph /  2.6 km/h   97 % 0.0 in /  0 mm
11:17 6.3 °F /  -14.3 °C 5.6 °F /  -14.7 °C 1013.4 in /  34313.7 hPa SW 1.6 mph /  2.6 km/h 3.2 mph /  5.1 km/h 95 % 0.0 in /  0 mm
11:32 7.3 °F /  -13.7 °C 6.4 °F /  -14.2 °C 1013.1 in /  34303.6 hPa Calm   3.2 mph /  5.1 km/h 94 % 0.0 in /  0 mm
11:37 7.5 °F /  -13.6 °C 6.3 °F /  -14.3 °C 1013.1 in /  34303.6 hPa SW 1.6 mph /  2.6 km/h 3.2 mph /  5.1 km/h 92 % 0.0 in /  0 mm
11:42 7.7 °F /  -13.5 °C 6.3 °F /  -14.3 °C 1013.1 in /  34303.6 hPa Calm   1.6 mph /  2.6 km/h 91 % 0.0 in /  0 mm
11:47 8.0 °F /  -13.3 °C 6.3 °F /  -14.3 °C 1013.1 in /  34303.6 hPa Calm   3.2 mph /  5.1 km/h 89 % 0.0 in /  0 mm
11:52 8.3 °F /  -13.2 °C 6.6 °F /  -14.1 °C 1012.8 in /  34293.4 hPa South 1.6 mph /  2.6 km/h 3.2 mph /  5.1 km/h 89 % 0.0 in /  0 mm
12:02 9.0 °F /  -12.8 °C 7.0 °F /  -13.9 °C 1012.8 in /  34293.4 hPa Calm   3.2 mph /  5.1 km/h 87 % 0.0 in /  0 mm
12:12 9.6 °F /  -12.4 °C 7.2 °F /  -13.8 °C 1012.8 in /  34293.4 hPa Calm   3.2 mph /  5.1 km/h 85 % 0.0 in /  0 mm
12:17 9.8 °F /  -12.3 °C 6.9 °F /  -13.9 °C 1012.4 in /  34279.9 hPa SSE 1.6 mph /  2.6 km/h 3.2 mph /  5.1 km/h 82 % 0.0 in /  0 mm
12:27 10.3 °F /  -12.1 °C 7.2 °F /  -13.8 °C 1012.1 in /  34269.7 hPa SSE 1.6 mph /  2.6 km/h 3.2 mph /  5.1 km/h 81 % 0.0 in /  0 mm
12:32 10.6 °F /  -11.9 °C 7.1 °F /  -13.8 °C 1012.1 in /  34269.7 hPa Calm   3.2 mph /  5.1 km/h 79 % 0.0 in /  0 mm
12:42 11.0 °F /  -11.7 °C 7.5 °F /  -13.6 °C 1012.1 in /  34269.7 hPa SE 1.6 mph /  2.6 km/h 4.8 mph /  7.7 km/h 79 % 0.0 in /  0 mm
12:47 11.1 °F /  -11.6 °C 7.4 °F /  -13.7 °C 1012.1 in /  34269.7 hPa South 3.2 mph /  5.1 km/h 4.8 mph /  7.7 km/h 78 % 0.0 in /  0 mm
12:52 11.2 °F /  -11.6 °C 7.3 °F /  -13.7 °C 1011.7 in /  34256.2 hPa Calm   3.2 mph /  5.1 km/h 77 % 0.0 in /  0 mm
13:02 11.7 °F /  -11.3 °C 7.8 °F /  -13.4 °C 1011.7 in /  34256.2 hPa Calm   3.2 mph /  5.1 km/h 77 % 0.0 in /  0 mm
13:12 11.8 °F /  -11.2 °C 7.9 °F /  -13.4 °C 1011.4 in /  34246 hPa Calm   3.2 mph /  5.1 km/h 77 % 0.0 in /  0 mm
13:17 12.1 °F /  -11.1 °C 8.0 °F /  -13.3 °C 1011.4 in /  34246 hPa SW 1.6 mph /  2.6 km/h 4.8 mph /  7.7 km/h 76 % 0.0 in /  0 mm
13:22 12.3 °F /  -10.9 °C 7.8 °F /  -13.4 °C 1011.4 in /  34246 hPa SW 1.6 mph /  2.6 km/h 4.8 mph /  7.7 km/h 74 % 0.0 in /  0 mm
13:37 13.1 °F /  -10.5 °C 8.6 °F /  -13 °C 1011.1 in /  34235.8 hPa SSW 1.6 mph /  2.6 km/h 6.4 mph /  10.3 km/h 74 % 0.0 in /  0 mm
13:47 13.4 °F /  -10.3 °C 8.5 °F /  -13.1 °C 1011.1 in /  34235.8 hPa SE 1.6 mph /  2.6 km/h 6.4 mph /  10.3 km/h 72 % 0.0 in /  0 mm
14:02 14.1 °F /  -9.9 °C 8.3 °F /  -13.2 °C 1010.7 in /  34222.3 hPa South 3.2 mph /  5.1 km/h 8.0 mph /  12.9 km/h 68 % 0.0 in /  0 mm
14:42 15.0 °F /  -9.4 °C 8.5 °F /  -13.1 °C 1010.4 in /  34212.1 hPa South 3.2 mph /  5.1 km/h 9.7 mph /  15.6 km/h 65 % 0.0 in /  0 mm
14:52 15.2 °F /  -9.3 °C 8.4 °F /  -13.1 °C 1010.0 in /  34198.6 hPa SE 3.2 mph /  5.1 km/h 8.0 mph /  12.9 km/h 64 % 0.0 in /  0 mm
15:02 15.2 °F /  -9.3 °C 8.2 °F /  -13.2 °C 1010.0 in /  34198.6 hPa SE 4.8 mph /  7.7 km/h 9.7 mph /  15.6 km/h 63 % 0.0 in /  0 mm
15:12 15.1 °F /  -9.4 °C 8.1 °F /  -13.3 °C 1010.0 in /  34198.6 hPa ESE 3.2 mph /  5.1 km/h 6.4 mph /  10.3 km/h 63 % 0.0 in /  0 mm
15:17 15.3 °F /  -9.3 °C 8.1 °F /  -13.3 °C 1010.0 in /  34198.6 hPa SSW 3.2 mph /  5.1 km/h 6.4 mph /  10.3 km/h 62 % 0.0 in /  0 mm
15:32 15.4 °F /  -9.2 °C 8.4 °F /  -13.1 °C 1009.7 in /  34188.4 hPa SE 1.6 mph /  2.6 km/h 6.4 mph /  10.3 km/h 63 % 0.0 in /  0 mm
15:37 15.4 °F /  -9.2 °C 8.6 °F /  -13 °C 1009.7 in /  34188.4 hPa SE 1.6 mph /  2.6 km/h 6.4 mph /  10.3 km/h 64 % 0.0 in /  0 mm
15:52 15.1 °F /  -9.4 °C 7.9 °F /  -13.4 °C 1009.4 in /  34178.3 hPa ESE 4.8 mph /  7.7 km/h 4.8 mph /  7.7 km/h 62 % 0.0 in /  0 mm
15:57 15.0 °F /  -9.4 °C 8.5 °F /  -13.1 °C 1009.4 in /  34178.3 hPa SE 1.6 mph /  2.6 km/h 6.4 mph /  10.3 km/h 65 % 0.0 in /  0 mm
16:02 14.9 °F /  -9.5 °C 7.9 °F /  -13.4 °C 1009.4 in /  34178.3 hPa Calm   6.4 mph /  10.3 km/h 63 % 0.0 in /  0 mm
16:12 15.0 °F /  -9.4 °C 8.2 °F /  -13.2 °C 1009.4 in /  34178.3 hPa SSE 1.6 mph /  2.6 km/h 4.8 mph /  7.7 km/h 64 % 0.0 in /  0 mm
16:17 15.2 °F /  -9.3 °C 8.7 °F /  -12.9 °C 1009.4 in /  34178.3 hPa SSW 1.6 mph /  2.6 km/h 3.2 mph /  5.1 km/h 65 % 0.0 in /  0 mm
16:22 14.9 °F /  -9.5 °C 8.4 °F /  -13.1 °C 1009.4 in /  34178.3 hPa SW 3.2 mph /  5.1 km/h 4.8 mph /  7.7 km/h 65 % 0.0 in /  0 mm
16:42 14.1 °F /  -9.9 °C 8.1 °F /  -13.3 °C 1009.4 in /  34178.3 hPa SSW 1.6 mph /  2.6 km/h 6.4 mph /  10.3 km/h 67 % 0.0 in /  0 mm
16:52 13.6 °F /  -10.2 °C 8.0 °F /  -13.3 °C 1009.4 in /  34178.3 hPa SW 3.2 mph /  5.1 km/h 6.4 mph /  10.3 km/h 69 % 0.0 in /  0 mm
16:57 13.3 °F /  -10.4 °C 7.9 °F /  -13.4 °C 1009.4 in /  34178.3 hPa SW 6.4 mph /  10.3 km/h 8.0 mph /  12.9 km/h 70 % 0.0 in /  0 mm
17:02 13.0 °F /  -10.6 °C 7.9 °F /  -13.4 °C 1009.4 in /  34178.3 hPa SSW 3.2 mph /  5.1 km/h 8.0 mph /  12.9 km/h 71 % 0.0 in /  0 mm
17:12 12.6 °F /  -10.8 °C 7.9 °F /  -13.4 °C 1009.0 in /  34164.7 hPa SSW 3.2 mph /  5.1 km/h 8.0 mph /  12.9 km/h 73 % 0.0 in /  0 mm
17:17 12.3 °F /  -10.9 °C 7.8 °F /  -13.4 °C 1009.0 in /  34164.7 hPa South 1.6 mph /  2.6 km/h 8.0 mph /  12.9 km/h 74 % 0.0 in /  0 mm
17:22 12.1 °F /  -11.1 °C 7.8 °F /  -13.4 °C 1009.0 in /  34164.7 hPa SW 1.6 mph /  2.6 km/h 6.4 mph /  10.3 km/h 75 % 0.0 in /  0 mm
17:32 11.9 °F /  -11.2 °C 7.8 °F /  -13.4 °C 1009.0 in /  34164.7 hPa Calm   4.8 mph /  7.7 km/h 76 % 0.0 in /  0 mm
17:37 11.8 °F /  -11.2 °C 7.5 °F /  -13.6 °C 1009.0 in /  34164.7 hPa Calm   3.2 mph /  5.1 km/h 75 % 0.0 in /  0 mm
17:42 11.6 °F /  -11.3 °C 7.5 °F /  -13.6 °C 1009.0 in /  34164.7 hPa SW 1.6 mph /  2.6 km/h 3.2 mph /  5.1 km/h 76 % 0.0 in /  0 mm
17:47 11.4 °F /  -11.4 °C 7.3 °F /  -13.7 °C 1009.0 in /  34164.7 hPa SSW 3.2 mph /  5.1 km/h 3.2 mph /  5.1 km/h 76 % 0.0 in /  0 mm
17:52 11.4 °F /  -11.4 °C 7.1 °F /  -13.8 °C 1009.0 in /  34164.7 hPa Calm   4.8 mph /  7.7 km/h 75 % 0.0 in /  0 mm
18:02 11.2 °F /  -11.6 °C 7.1 °F /  -13.8 °C 1009.0 in /  34164.7 hPa SSW 1.6 mph /  2.6 km/h 4.8 mph /  7.7 km/h 76 % 0.0 in /  0 mm
18:22 10.5 °F /  -11.9 °C 6.8 °F /  -14 °C 1009.0 in /  34164.7 hPa SW 1.6 mph /  2.6 km/h 4.8 mph /  7.7 km/h 78 % 0.0 in /  0 mm
18:27 10.3 °F /  -12.1 °C 6.6 °F /  -14.1 °C 1009.0 in /  34164.7 hPa SW 1.6 mph /  2.6 km/h 4.8 mph /  7.7 km/h 78 % 0.0 in /  0 mm
18:32 10.2 °F /  -12.1 °C 6.5 °F /  -14.2 °C 1009.0 in /  34164.7 hPa WSW 1.6 mph /  2.6 km/h 4.8 mph /  7.7 km/h 78 % 0.0 in /  0 mm
18:37 10.2 °F /  -12.1 °C 6.7 °F /  -14.1 °C 1009.0 in /  34164.7 hPa SSW 1.6 mph /  2.6 km/h 4.8 mph /  7.7 km/h 79 % 0.0 in /  0 mm
18:52 9.8 °F /  -12.3 °C 6.5 °F /  -14.2 °C 1008.7 in /  34154.6 hPa SSW 1.6 mph /  2.6 km/h 4.8 mph /  7.7 km/h 80 % 0.0 in /  0 mm
19:02 9.8 °F /  -12.3 °C 6.5 °F /  -14.2 °C 1008.7 in /  34154.6 hPa SSW 3.2 mph /  5.1 km/h 6.4 mph /  10.3 km/h 80 % 0.0 in /  0 mm
19:12 9.7 °F /  -12.4 °C 6.2 °F /  -14.3 °C 1008.4 in /  34144.4 hPa SSW 6.4 mph /  10.3 km/h 8.0 mph /  12.9 km/h 79 % 0.0 in /  0 mm
19:22 9.2 °F /  -12.7 °C 6.1 °F /  -14.4 °C 1008.7 in /  34154.6 hPa SSW 6.4 mph /  10.3 km/h 8.0 mph /  12.9 km/h 81 % 0.0 in /  0 mm
19:32 9.4 °F /  -12.6 °C 6.1 °F /  -14.4 °C 1008.7 in /  34154.6 hPa SSW 6.4 mph /  10.3 km/h 8.0 mph /  12.9 km/h 80 % 0.0 in /  0 mm
19:37 9.5 °F /  -12.5 °C 6.0 °F /  -14.4 °C 1008.7 in /  34154.6 hPa SSW 3.2 mph /  5.1 km/h 8.0 mph /  12.9 km/h 79 % 0.0 in /  0 mm
19:42 9.6 °F /  -12.4 °C 6.1 °F /  -14.4 °C 1008.7 in /  34154.6 hPa SSW 4.8 mph /  7.7 km/h 9.7 mph /  15.6 km/h 79 % 0.0 in /  0 mm
19:47 9.6 °F /  -12.4 °C 6.1 °F /  -14.4 °C 1008.7 in /  34154.6 hPa SSW 4.8 mph /  7.7 km/h 9.7 mph /  15.6 km/h 79 % 0.0 in /  0 mm
20:02 9.3 °F /  -12.6 °C 5.8 °F /  -14.6 °C 1008.7 in /  34154.6 hPa SSW 3.2 mph /  5.1 km/h 6.4 mph /  10.3 km/h 79 % 0.0 in /  0 mm
20:17 8.9 °F /  -12.8 °C 5.3 °F /  -14.8 °C 1008.4 in /  34144.4 hPa SSW 3.2 mph /  5.1 km/h 6.4 mph /  10.3 km/h 78 % 0.0 in /  0 mm
20:32 9.1 °F /  -12.7 °C 5.3 °F /  -14.8 °C 1008.4 in /  34144.4 hPa SSW 1.6 mph /  2.6 km/h 6.4 mph /  10.3 km/h 77 % 0.0 in /  0 mm
20:42 8.9 °F /  -12.8 °C 5.1 °F /  -14.9 °C 1008.4 in /  34144.4 hPa SW 3.2 mph /  5.1 km/h 6.4 mph /  10.3 km/h 77 % 0.0 in /  0 mm
20:47 8.7 °F /  -12.9 °C 4.9 °F /  -15.1 °C 1008.4 in /  34144.4 hPa SSW 4.8 mph /  7.7 km/h 6.4 mph /  10.3 km/h 77 % 0.0 in /  0 mm
21:12 7.8 °F /  -13.4 °C 4.2 °F /  -15.4 °C 1008.4 in /  34144.4 hPa South 4.8 mph /  7.7 km/h 9.7 mph /  15.6 km/h 78 % 0.0 in /  0 mm
21:17 7.3 °F /  -13.7 °C 3.9 °F /  -15.6 °C 1008.4 in /  34144.4 hPa SSW 4.8 mph /  7.7 km/h 9.7 mph /  15.6 km/h 79 % 0.0 in /  0 mm
21:22 7.5 °F /  -13.6 °C 4.3 °F /  -15.4 °C 1008.4 in /  34144.4 hPa SW 3.2 mph /  5.1 km/h 8.0 mph /  12.9 km/h 80 % 0.0 in /  0 mm
21:32 7.9 °F /  -13.4 °C 4.1 °F /  -15.5 °C 1008.4 in /  34144.4 hPa South 3.2 mph /  5.1 km/h 9.7 mph /  15.6 km/h 77 % 0.0 in /  0 mm
21:42 7.8 °F /  -13.4 °C 4.0 °F /  -15.6 °C 1008.4 in /  34144.4 hPa SW 3.2 mph /  5.1 km/h 8.0 mph /  12.9 km/h 77 % 0.0 in /  0 mm
21:47 7.8 °F /  -13.4 °C 4.0 °F /  -15.6 °C 1008.4 in /  34144.4 hPa SSE 3.2 mph /  5.1 km/h 6.4 mph /  10.3 km/h 77 % 0.0 in /  0 mm
21:57 7.9 °F /  -13.4 °C 4.1 °F /  -15.5 °C 1008.4 in /  34144.4 hPa SSE 4.8 mph /  7.7 km/h 6.4 mph /  10.3 km/h 77 % 0.0 in /  0 mm
22:02 7.9 °F /  -13.4 °C 4.1 °F /  -15.5 °C 1008.4 in /  34144.4 hPa South 1.6 mph /  2.6 km/h 6.4 mph /  10.3 km/h 77 % 0.0 in /  0 mm
22:17 8.0 °F /  -13.3 °C 4.4 °F /  -15.3 °C 1008.4 in /  34144.4 hPa Calm   6.4 mph /  10.3 km/h 78 % 0.0 in /  0 mm
22:22 7.8 °F /  -13.4 °C 4.2 °F /  -15.4 °C 1008.4 in /  34144.4 hPa SSW 1.6 mph /  2.6 km/h 6.4 mph /  10.3 km/h 78 % 0.0 in /  0 mm
22:32 7.8 °F /  -13.4 °C 4.4 °F /  -15.3 °C 1008.4 in /  34144.4 hPa SSW 1.6 mph /  2.6 km/h 3.2 mph /  5.1 km/h 79 % 0.0 in /  0 mm
22:42 7.8 °F /  -13.4 °C 4.4 °F /  -15.3 °C 1008.0 in /  34130.9 hPa SW 3.2 mph /  5.1 km/h 3.2 mph /  5.1 km/h 79 % 0.0 in /  0 mm
22:47 7.7 °F /  -13.5 °C 4.3 °F /  -15.4 °C 1008.0 in /  34130.9 hPa Calm   4.8 mph /  7.7 km/h 79 % 0.0 in /  0 mm
22:52 7.7 °F /  -13.5 °C 4.5 °F /  -15.3 °C 1008.0 in /  34130.9 hPa SE 4.8 mph /  7.7 km/h 4.8 mph /  7.7 km/h 80 % 0.0 in /  0 mm
22:57 7.8 °F /  -13.4 °C 4.6 °F /  -15.2 °C 1008.0 in /  34130.9 hPa SSE 1.6 mph /  2.6 km/h 4.8 mph /  7.7 km/h 80 % 0.0 in /  0 mm
23:02 7.7 °F /  -13.5 °C 4.3 °F /  -15.4 °C 1008.0 in /  34130.9 hPa SSW 3.2 mph /  5.1 km/h 4.8 mph /  7.7 km/h 79 % 0.0 in /  0 mm
23:12 7.7 °F /  -13.5 °C 4.6 °F /  -15.2 °C 1008.0 in /  34130.9 hPa SSE 1.6 mph /  2.6 km/h 4.8 mph /  7.7 km/h 81 % 0.0 in /  0 mm
23:17 7.8 °F /  -13.4 °C 4.7 °F /  -15.2 °C 1008.0 in /  34130.9 hPa South 1.6 mph /  2.6 km/h 3.2 mph /  5.1 km/h 81 % 0.0 in /  0 mm
23:27 7.6 °F /  -13.6 °C 4.5 °F /  -15.3 °C 1008.0 in /  34130.9 hPa South 1.6 mph /  2.6 km/h 3.2 mph /  5.1 km/h 81 % 0.0 in /  0 mm
23:32 7.7 °F /  -13.5 °C 4.8 °F /  -15.1 °C 1008.0 in /  34130.9 hPa South 1.6 mph /  2.6 km/h 3.2 mph /  5.1 km/h 82 % 0.0 in /  0 mm
23:42 7.7 °F /  -13.5 °C 4.8 °F /  -15.1 °C 1008.0 in /  34130.9 hPa South 1.6 mph /  2.6 km/h 3.2 mph /  5.1 km/h 82 % 0.0 in /  0 mm
23:47 7.7 °F /  -13.5 °C 5.0 °F /  -15 °C 1008.0 in /  34130.9 hPa Calm   3.2 mph /  5.1 km/h 83 % 0.0 in /  0 mm
23:52 7.8 °F /  -13.4 °C 4.9 °F /  -15.1 °C 1008.0 in /  34130.9 hPa South 1.6 mph /  2.6 km/h 3.2 mph /  5.1 km/h 82 % 0.0 in /  0 mm
Meteo18
Compliments of Weather Underground - 4 mb

Script developed by  Jim McMurry - jmcmurry@mwt.net Adapted for the template by  Wim van der Kuil - Leuven-Template.eu

You find our weather info also at:

European Weather Network

Weather Underground

Equipment we use:

Weather-station
Davis Vue

Weather-program
Meteobridge

Weather-server
Raspberry PI 2 B+

Provider
1 and 1

Davis Vue

Meteobridge

Raspberry PI 2 B+

1 and 1